Time;durP1;ratioP1;P1;durP2;ratioP2;P2;SDS_P1;SDS_P2;PMS_P1;PMS_P2;Temp;Humidity;BMP_temperature;BMP_pressure;BME280_temperature;BME280_humidity;BME280_pressure;Samples;Min_cycle;Max_cycle;Signal;HPM_P1;HPM_P2
2022/01/01 00:02:23;;;;;;;2.10;1.05;;;16.80;62.00;;;;;;5095987;28;20077;-64
2022/01/01 00:04:50;;;;;;;1.35;0.90;;;16.80;62.00;;;;;;5097656;28;20016;-63
2022/01/01 00:07:16;;;;;;;1.60;0.90;;;16.70;62.10;;;;;;5097355;28;20035;-63
2022/01/01 00:09:45;;;;;;;1.50;1.00;;;16.70;62.20;;;;;;5096919;28;20059;-63
2022/01/01 00:12:28;;;;;;;1.58;0.93;;;16.70;62.20;;;;;;5096469;28;20074;-63
2022/01/01 00:14:54;;;;;;;1.30;0.93;;;16.70;62.20;;;;;;5096833;28;20032;-63
2022/01/01 00:17:21;;;;;;;1.25;0.80;;;16.70;62.20;;;;;;5097220;28;20008;-63
2022/01/01 00:19:46;;;;;;;1.65;1.00;;;16.70;62.20;;;;;;5096879;28;20012;-63
2022/01/01 00:22:13;;;;;;;1.63;1.00;;;16.70;62.20;;;;;;5096317;28;20024;-64
2022/01/01 00:24:39;;;;;;;1.55;0.90;;;16.70;62.20;;;;;;5096549;28;20020;-64
2022/01/01 00:27:07;;;;;;;2.30;1.17;;;16.70;62.30;;;;;;5096461;28;20126;-63
2022/01/01 00:29:34;;;;;;;1.70;1.08;;;16.70;62.20;;;;;;5096505;28;20039;-63
2022/01/01 00:32:01;;;;;;;0.95;0.80;;;16.70;62.10;;;;;;5096297;28;20024;-64
2022/01/01 00:34:27;;;;;;;2.05;1.00;;;16.70;62.10;;;;;;5095572;28;20012;-62
2022/01/01 00:36:53;;;;;;;1.52;1.00;;;16.70;62.20;;;;;;5095318;28;20023;-63
2022/01/01 00:39:19;;;;;;;1.35;0.95;;;16.70;62.30;;;;;;5095913;28;20020;-63
2022/01/01 00:41:45;;;;;;;1.77;0.80;;;16.70;62.20;;;;;;5095548;28;20066;-63
2022/01/01 00:44:11;;;;;;;1.00;0.90;;;16.70;62.20;;;;;;5095565;28;20028;-63
2022/01/01 00:46:38;;;;;;;1.40;0.93;;;16.80;62.10;;;;;;5094044;28;20069;-63
2022/01/01 00:49:04;;;;;;;1.55;0.98;;;16.80;62.10;;;;;;5094062;28;20028;-63
2022/01/01 00:51:31;;;;;;;1.35;1.00;;;16.80;62.00;;;;;;5093474;28;20048;-63
2022/01/01 00:53:57;;;;;;;1.67;1.00;;;16.70;62.10;;;;;;5094950;28;20035;-64
2022/01/01 00:56:23;;;;;;;1.55;0.90;;;16.70;62.00;;;;;;5094665;28;20426;-63
2022/01/01 00:58:49;;;;;;;0.98;0.80;;;16.80;62.10;;;;;;5094675;28;20062;-63
2022/01/01 01:01:15;;;;;;;2.55;1.17;;;16.80;62.10;;;;;;5094818;28;20024;-64
2022/01/01 01:03:41;;;;;;;1.02;0.90;;;16.80;62.00;;;;;;5095026;28;20531;-64
2022/01/01 01:06:07;;;;;;;1.77;0.85;;;16.70;61.90;;;;;;5094994;28;20085;-64
2022/01/01 01:08:34;;;;;;;0.85;0.70;;;16.70;62.00;;;;;;5093256;28;20482;-63
2022/01/01 01:11:01;;;;;;;1.70;0.85;;;16.70;62.10;;;;;;5094748;28;20097;-63
2022/01/01 01:13:31;;;;;;;1.27;0.93;;;16.70;62.00;;;;;;5094838;28;20042;-63
2022/01/01 01:15:57;;;;;;;1.40;0.80;;;16.70;62.10;;;;;;5094754;28;20013;-63
2022/01/01 01:18:23;;;;;;;1.33;0.90;;;16.70;62.10;;;;;;5093573;28;20024;-64
2022/01/01 01:20:49;;;;;;;1.77;0.80;;;16.70;62.10;;;;;;5095106;28;20070;-63
2022/01/01 01:23:16;;;;;;;2.00;1.10;;;16.70;62.10;;;;;;5094473;28;20058;-63
2022/01/01 01:25:42;;;;;;;0.98;0.82;;;16.70;62.00;;;;;;5094326;28;20498;-63
2022/01/01 01:28:08;;;;;;;1.50;1.00;;;16.70;62.10;;;;;;5094370;28;20102;-63
2022/01/01 01:30:35;;;;;;;1.63;1.02;;;16.70;62.00;;;;;;5094230;28;20020;-63
2022/01/01 01:33:02;;;;;;;1.50;1.00;;;16.70;62.00;;;;;;5093896;28;20474;-64
2022/01/01 01:35:27;;;;;;;2.45;1.20;;;16.70;62.00;;;;;;5093873;28;20382;-63
2022/01/01 01:37:55;;;;;;;1.40;0.85;;;16.80;62.00;;;;;;5092872;28;20012;-63
2022/01/01 01:40:21;;;;;;;1.50;0.82;;;16.80;62.00;;;;;;5093797;28;20028;-63
2022/01/01 01:42:48;;;;;;;1.70;0.88;;;16.80;61.90;;;;;;5093830;28;20023;-63
2022/01/01 01:45:19;;;;;;;1.08;0.80;;;16.80;61.90;;;;;;5093800;28;20012;-63
2022/01/01 01:47:47;;;;;;;;;;;16.80;61.80;;;;;;5093453;28;20020;-63
2022/01/01 01:50:14;;;;;;;1.38;1.00;;;16.80;61.70;;;;;;5093633;28;20404;-64
2022/01/01 01:52:44;;;;;;;1.60;0.90;;;16.80;61.60;;;;;;5093568;28;20009;-63
2022/01/01 01:55:10;;;;;;;1.10;0.88;;;16.80;61.60;;;;;;5093576;28;20023;-63
2022/01/01 01:57:39;;;;;;;0.93;0.85;;;16.80;61.60;;;;;;5093492;28;20008;-63
2022/01/01 02:02:59;;;;;;;1.92;0.98;;;16.90;61.50;;;;;;5093467;28;20503;-63
2022/01/01 02:05:25;;;;;;;1.23;0.82;;;16.90;61.30;;;;;;5093619;28;20012;-62
2022/01/01 02:07:51;;;;;;;1.38;0.80;;;16.90;61.40;;;;;;5075297;28;20395;-63
2022/01/01 02:10:17;;;;;;;1.70;1.08;;;16.90;61.40;;;;;;5092355;28;20478;-63
2022/01/01 02:12:48;;;;;;;1.83;0.90;;;16.90;61.30;;;;;;5092264;28;20012;-63
2022/01/01 02:15:42;;;;;;;1.30;0.90;;;16.90;61.40;;;;;;5092492;28;20059;-63
2022/01/01 02:18:08;;;;;;;1.50;0.95;;;16.90;61.40;;;;;;5093651;28;20030;-62
2022/01/01 02:20:34;;;;;;;1.27;0.90;;;16.90;61.40;;;;;;5093602;28;20020;-63
2022/01/01 02:23:01;;;;;;;1.38;1.00;;;16.90;61.30;;;;;;5092325;28;20028;-63
2022/01/01 02:25:27;;;;;;;1.25;1.10;;;16.90;61.30;;;;;;5093548;28;20024;-63
2022/01/01 02:27:53;;;;;;;2.60;1.15;;;16.90;61.30;;;;;;5094530;28;20012;-64
2022/01/01 02:30:19;;;;;;;1.05;0.90;;;16.80;61.40;;;;;;5095656;28;20047;-65
2022/01/01 02:32:46;;;;;;;0.90;0.80;;;16.80;61.40;;;;;;5095484;28;20020;-66
2022/01/01 02:35:13;;;;;;;1.98;0.88;;;16.90;61.40;;;;;;5096138;28;20012;-65
2022/01/01 02:37:39;;;;;;;1.50;0.88;;;16.80;61.40;;;;;;5077393;28;20070;-65
2022/01/01 02:40:05;;;;;;;1.80;1.10;;;16.80;61.30;;;;;;5095828;28;20024;-66
2022/01/01 02:42:31;;;;;;;1.50;1.00;;;16.80;61.40;;;;;;5095897;28;20016;-66
2022/01/01 02:44:59;;;;;;;1.35;0.70;;;16.90;61.40;;;;;;5095263;28;20031;-65
2022/01/01 02:47:25;;;;;;;1.25;0.98;;;16.90;61.30;;;;;;5095042;28;20012;-66
2022/01/01 02:49:52;;;;;;;0.88;0.80;;;16.80;61.30;;;;;;5094443;28;20478;-67
2022/01/01 02:52:18;;;;;;;1.67;1.00;;;16.80;61.30;;;;;;5093571;28;20036;-63
2022/01/01 02:54:43;;;;;;;2.13;1.20;;;16.80;61.40;;;;;;5092434;28;20013;-64
2022/01/01 02:57:09;;;;;;;1.05;0.90;;;16.90;61.30;;;;;;5094125;28;20717;-64
2022/01/01 02:59:35;;;;;;;1.20;0.98;;;16.80;61.40;;;;;;5093580;28;20008;-64
2022/01/01 03:02:02;;;;;;;1.13;0.90;;;16.80;61.30;;;;;;5093766;28;20016;-64
2022/01/01 03:04:28;;;;;;;1.42;0.90;;;16.80;62.00;;;;;;5093406;28;20016;-65
2022/01/01 03:06:55;;;;;;;1.08;0.85;;;16.80;61.40;;;;;;5093319;28;20040;-64
2022/01/01 03:09:23;;;;;;;1.23;0.93;;;16.80;61.50;;;;;;5092274;28;20403;-65
2022/01/01 03:11:49;;;;;;;1.35;1.00;;;16.80;61.40;;;;;;5093438;28;20020;-64
2022/01/01 03:14:17;;;;;;;0.70;0.70;;;16.80;61.50;;;;;;5095077;28;20099;-65
2022/01/01 03:16:49;;;;;;;2.63;1.15;;;16.80;61.50;;;;;;5094151;28;20019;-64
2022/01/01 03:19:15;;;;;;;1.25;0.90;;;16.80;61.50;;;;;;5095163;28;20013;-65
2022/01/01 03:21:41;;;;;;;1.63;0.90;;;16.70;61.50;;;;;;5096608;28;20028;-64
2022/01/01 03:24:08;;;;;;;1.27;0.82;;;16.80;61.50;;;;;;5095909;28;20016;-65
2022/01/01 03:26:33;;;;;;;1.13;0.93;;;16.80;61.50;;;;;;5095143;28;20477;-64
2022/01/01 03:29:00;;;;;;;1.50;0.88;;;16.70;61.50;;;;;;5095218;28;20070;-64
2022/01/01 03:31:26;;;;;;;0.93;0.80;;;16.70;61.60;;;;;;5093696;28;20024;-64
2022/01/01 03:33:52;;;;;;;1.40;0.90;;;16.80;61.50;;;;;;5096083;28;20021;-65
2022/01/01 03:36:18;;;;;;;1.20;0.90;;;16.70;61.50;;;;;;5094757;28;20004;-63
2022/01/01 03:38:45;;;;;;;2.30;0.95;;;16.70;61.60;;;;;;5095316;28;20021;-64
2022/01/01 03:41:11;;;;;;;2.10;0.85;;;16.70;61.60;;;;;;5094221;28;20069;-65
2022/01/01 03:43:37;;;;;;;1.35;0.90;;;16.80;61.50;;;;;;5093980;28;20493;-64
2022/01/01 03:46:03;;;;;;;0.90;0.70;;;16.70;61.50;;;;;;5095373;28;20008;-64
2022/01/01 03:48:29;;;;;;;1.77;1.00;;;16.70;61.60;;;;;;5096274;28;20022;-64
2022/01/01 03:50:55;;;;;;;1.10;0.65;;;16.70;61.60;;;;;;5098721;28;20130;-64
2022/01/01 03:53:25;;;;;;;1.50;0.90;;;16.70;61.70;;;;;;5098158;28;20020;-63
2022/01/01 03:55:50;;;;;;;1.00;0.90;;;16.70;61.70;;;;;;5097971;28;20036;-64
2022/01/01 03:58:16;;;;;;;1.48;1.00;;;16.80;61.60;;;;;;5097590;28;20386;-65
2022/01/01 04:00:43;;;;;;;1.02;0.70;;;16.70;61.60;;;;;;5097640;28;20099;-64
2022/01/01 04:03:10;;;;;;;0.80;0.70;;;16.70;61.60;;;;;;5099112;28;20036;-64
2022/01/01 04:05:37;;;;;;;1.88;0.90;;;16.80;61.50;;;;;;5097903;28;20467;-65
2022/01/01 04:08:04;;;;;;;1.42;0.93;;;16.70;61.50;;;;;;5097486;28;20048;-65
2022/01/01 04:10:31;;;;;;;0.95;0.75;;;16.70;61.40;;;;;;5097815;28;20020;-63
2022/01/01 04:13:00;;;;;;;1.17;0.80;;;16.80;61.30;;;;;;5098483;28;20012;-64
2022/01/01 04:15:27;;;;;;;0.80;0.70;;;16.80;61.20;;;;;;5099456;28;20012;-64
2022/01/01 04:17:58;;;;;;;1.20;0.80;;;16.80;61.20;;;;;;5098402;28;20023;-64
2022/01/01 04:20:24;;;;;;;1.33;0.93;;;16.80;61.20;;;;;;5097813;28;20027;-65
2022/01/01 04:22:52;;;;;;;0.93;0.80;;;16.90;61.20;;;;;;5097579;28;20023;-64
2022/01/01 04:25:18;;;;;;;1.23;0.82;;;16.90;61.20;;;;;;5098681;28;20032;-63
2022/01/01 04:27:44;;;;;;;1.02;0.90;;;16.90;61.20;;;;;;5098619;28;20059;-64
2022/01/01 04:30:10;;;;;;;1.20;0.82;;;16.90;61.10;;;;;;5097496;28;20510;-61
2022/01/01 04:32:37;;;;;;;1.00;0.90;;;16.90;60.90;;;;;;5096043;28;20009;-64
2022/01/01 04:35:03;;;;;;;1.20;0.60;;;16.90;61.00;;;;;;5096070;28;20027;-63
2022/01/01 04:37:30;;;;;;;0.77;0.70;;;16.90;60.90;;;;;;5096127;28;20083;-63
2022/01/01 04:39:59;;;;;;;2.05;1.05;;;16.90;60.90;;;;;;5095670;28;20096;-63
2022/01/01 04:42:25;;;;;;;1.30;0.90;;;17.00;60.80;;;;;;5095574;28;20039;-63
2022/01/01 04:44:52;;;;;;;2.30;0.90;;;17.00;60.80;;;;;;5095439;28;20024;-62
2022/01/01 04:47:18;;;;;;;1.10;0.80;;;17.00;60.90;;;;;;5096117;28;20946;-63
2022/01/01 04:49:44;;;;;;;1.27;0.80;;;17.00;60.90;;;;;;5096763;28;20046;-64
2022/01/01 04:52:10;;;;;;;2.40;0.82;;;17.00;60.70;;;;;;5099438;28;20035;-62
2022/01/01 04:54:40;;;;;;;1.40;0.90;;;17.00;60.70;;;;;;5098959;28;20031;-64
2022/01/01 04:57:06;;;;;;;1.38;1.00;;;17.00;60.80;;;;;;5099416;28;20019;-63
2022/01/01 04:59:36;;;;;;;1.10;0.80;;;16.90;60.80;;;;;;5099484;28;20032;-63
2022/01/01 05:02:02;;;;;;;0.77;0.75;;;17.00;60.80;;;;;;5098634;28;20054;-62
2022/01/01 05:04:29;;;;;;;1.95;1.10;;;17.00;60.70;;;;;;5097179;28;20095;-63
2022/01/01 05:06:55;;;;;;;1.25;1.00;;;17.00;60.70;;;;;;5098424;28;20016;-64
2022/01/01 05:09:21;;;;;;;1.35;0.80;;;17.00;60.70;;;;;;5099159;28;20043;-63
2022/01/01 05:11:48;;;;;;;1.42;1.00;;;17.00;60.80;;;;;;5097939;28;20034;-63
2022/01/01 05:14:14;;;;;;;1.45;1.02;;;16.90;60.80;;;;;;5098120;28;20024;-64
2022/01/01 05:16:41;;;;;;;2.08;1.10;;;16.90;60.90;;;;;;5098668;28;20016;-63
2022/01/01 05:19:06;;;;;;;1.35;0.95;;;17.00;60.80;;;;;;5097333;28;20049;-63
2022/01/01 05:21:34;;;;;;;0.85;0.80;;;16.90;60.60;;;;;;5096075;28;20069;-63
2022/01/01 05:24:01;;;;;;;1.10;0.80;;;16.90;60.80;;;;;;5096707;28;20016;-63
2022/01/01 05:26:27;;;;;;;1.45;1.00;;;16.90;60.90;;;;;;5096460;28;20028;-63
2022/01/01 05:28:53;;;;;;;1.70;1.05;;;16.90;60.80;;;;;;5096112;28;20024;-64
2022/01/01 05:31:19;;;;;;;1.40;1.10;;;17.00;60.80;;;;;;5096213;28;20496;-63
2022/01/01 05:33:46;;;;;;;1.23;1.10;;;16.90;60.70;;;;;;5096123;28;20070;-63
2022/01/01 05:36:13;;;;;;;1.83;0.98;;;16.90;60.70;;;;;;5094886;28;20013;-63
2022/01/01 05:38:43;;;;;;;1.10;0.70;;;16.90;60.80;;;;;;5095511;28;20012;-64
2022/01/01 05:41:09;;;;;;;1.00;0.85;;;16.90;60.80;;;;;;5094424;28;20370;-64
2022/01/01 05:43:36;;;;;;;1.90;0.80;;;16.90;61.40;;;;;;5096069;28;20096;-64
2022/01/01 05:46:02;;;;;;;1.20;0.98;;;16.90;60.80;;;;;;5094342;28;20024;-62
2022/01/01 05:48:28;;;;;;;1.15;0.90;;;16.90;60.90;;;;;;5095105;28;20020;-63
2022/01/01 05:50:55;;;;;;;1.00;0.73;;;16.90;60.90;;;;;;5094988;28;20024;-63
2022/01/01 05:53:21;;;;;;;1.48;0.82;;;16.90;60.90;;;;;;5094970;28;20039;-64
2022/01/01 05:55:47;;;;;;;0.77;0.77;;;16.80;60.80;;;;;;5094556;28;20061;-63
2022/01/01 05:58:13;;;;;;;2.03;0.90;;;16.90;60.80;;;;;;5094963;28;20035;-63
2022/01/01 06:00:40;;;;;;;1.35;0.80;;;16.90;60.80;;;;;;5094437;28;20018;-63
2022/01/01 06:03:05;;;;;;;2.25;0.90;;;16.90;60.80;;;;;;5094238;28;20047;-63
2022/01/01 06:05:32;;;;;;;1.10;0.85;;;16.90;60.90;;;;;;5092969;28;20020;-63
2022/01/01 06:07:59;;;;;;;1.75;1.15;;;16.90;60.90;;;;;;5093361;28;20052;-63
2022/01/01 06:10:25;;;;;;;1.27;0.75;;;16.90;60.90;;;;;;5094583;28;20022;-64
2022/01/01 06:12:52;;;;;;;1.05;0.70;;;16.90;61.10;;;;;;5096411;28;20016;-64
2022/01/01 06:15:18;;;;;;;1.10;1.00;;;16.90;61.00;;;;;;5095093;28;20048;-64
2022/01/01 06:17:44;;;;;;;1.70;0.88;;;16.90;61.50;;;;;;5096245;28;20024;-63
2022/01/01 06:20:11;;;;;;;1.50;1.02;;;16.90;60.80;;;;;;5096024;28;20020;-63
2022/01/01 06:22:38;;;;;;;1.15;0.95;;;16.90;60.80;;;;;;5096750;28;20024;-65
2022/01/01 06:25:04;;;;;;;1.15;0.90;;;16.90;60.80;;;;;;5096483;28;20496;-64
2022/01/01 06:27:31;;;;;;;1.80;1.10;;;17.00;60.80;;;;;;5096591;28;20091;-63
2022/01/01 06:29:57;;;;;;;1.38;0.80;;;17.00;60.70;;;;;;5096494;28;20032;-63
2022/01/01 06:32:23;;;;;;;1.30;0.80;;;16.90;60.70;;;;;;5093910;28;20024;-63
2022/01/01 06:34:49;;;;;;;1.30;1.00;;;16.90;60.70;;;;;;5093827;28;20036;-63
2022/01/01 06:37:15;;;;;;;0.88;0.80;;;17.00;60.70;;;;;;5093263;28;20052;-64
2022/01/01 06:39:41;;;;;;;1.15;0.80;;;17.00;60.60;;;;;;5093747;28;20035;-63
2022/01/01 06:42:07;;;;;;;1.67;1.05;;;17.00;60.40;;;;;;5094291;28;20016;-64
2022/01/01 06:44:32;;;;;;;1.02;0.80;;;17.00;60.40;;;;;;5093829;28;20362;-64
2022/01/01 06:46:59;;;;;;;1.00;0.90;;;17.10;60.40;;;;;;5093519;28;20092;-63
2022/01/01 06:49:25;;;;;;;1.17;0.80;;;17.00;60.30;;;;;;5093260;28;20019;-63
2022/01/01 06:51:51;;;;;;;1.25;0.90;;;17.10;60.40;;;;;;5091891;28;20024;-63
2022/01/01 06:54:18;;;;;;;0.73;0.73;;;17.10;60.30;;;;;;5093895;28;20016;-63
2022/01/01 06:56:44;;;;;;;0.70;0.70;;;17.10;60.30;;;;;;5094126;28;20027;-64
2022/01/01 06:59:11;;;;;;;0.95;0.85;;;17.10;60.20;;;;;;5093450;28;20016;-63
2022/01/01 07:01:40;;;;;;;1.95;0.88;;;17.10;60.10;;;;;;5093393;28;20036;-63
2022/01/01 07:04:05;;;;;;;0.80;0.75;;;17.20;60.10;;;;;;5093178;28;20020;-63
2022/01/01 07:06:33;;;;;;;1.40;0.90;;;17.10;59.90;;;;;;5091738;28;20024;-63
2022/01/01 07:09:02;;;;;;;1.05;0.80;;;17.10;59.90;;;;;;5091882;28;20077;-65
2022/01/01 07:11:27;;;;;;;1.08;0.90;;;17.20;60.40;;;;;;5092969;28;20111;-64
2022/01/01 07:13:53;;;;;;;1.23;0.90;;;17.20;59.90;;;;;;5091869;28;20039;-63
2022/01/01 07:16:22;;;;;;;1.17;0.73;;;17.20;59.80;;;;;;5093257;28;20012;-63
2022/01/01 07:19:06;;;;;;;1.67;1.00;;;17.20;59.70;;;;;;5093485;28;20420;-63
2022/01/01 07:21:33;;;;;;;1.35;0.93;;;17.20;59.70;;;;;;5097234;28;20495;-63
2022/01/01 07:23:59;;;;;;;1.45;0.80;;;17.20;59.90;;;;;;5096513;28;20047;-63
2022/01/01 07:26:26;;;;;;;1.08;0.80;;;17.20;59.90;;;;;;5098263;28;20058;-63
2022/01/01 07:28:54;;;;;;;0.98;0.88;;;17.10;59.90;;;;;;5097662;28;20020;-62
2022/01/01 07:31:20;;;;;;;1.40;1.00;;;17.20;59.90;;;;;;5097179;28;20032;-63
2022/01/01 07:33:45;;;;;;;1.15;0.73;;;17.20;59.80;;;;;;5098155;28;20016;-63
2022/01/01 07:36:12;;;;;;;1.52;0.95;;;17.20;59.90;;;;;;5099491;28;20382;-62
2022/01/01 07:38:39;;;;;;;0.85;0.85;;;17.10;59.90;;;;;;5099511;28;20043;-64
2022/01/01 07:41:05;;;;;;;1.00;0.90;;;17.10;60.00;;;;;;5098068;28;20024;-63
2022/01/01 07:43:31;;;;;;;0.90;0.80;;;17.20;60.00;;;;;;5099129;28;20095;-62
2022/01/01 07:45:57;;;;;;;1.20;0.90;;;17.10;60.00;;;;;;5099116;28;20016;-62
2022/01/01 07:48:23;;;;;;;0.82;0.70;;;17.10;60.00;;;;;;5099792;28;20024;-64
2022/01/01 07:50:50;;;;;;;1.48;0.93;;;17.10;60.00;;;;;;5100038;28;20077;-63
2022/01/01 07:53:16;;;;;;;0.90;0.80;;;17.10;60.10;;;;;;5098348;28;20046;-63
2022/01/01 07:55:42;;;;;;;1.05;0.88;;;17.00;60.20;;;;;;5099027;28;20016;-64
2022/01/01 07:58:11;;;;;;;0.68;0.68;;;17.00;60.20;;;;;;5098880;28;20366;-63
2022/01/01 08:00:37;;;;;;;1.35;0.82;;;17.10;60.10;;;;;;5095477;28;20028;-62
2022/01/01 08:03:03;;;;;;;1.52;1.00;;;17.10;60.20;;;;;;5097435;28;20099;-63
2022/01/01 08:05:29;;;;;;;0.70;0.70;;;17.00;60.10;;;;;;5098039;28;20012;-63
2022/01/01 08:07:54;;;;;;;1.30;1.00;;;17.00;60.20;;;;;;5097650;28;20054;-62
2022/01/01 08:10:21;;;;;;;1.00;0.90;;;17.00;60.20;;;;;;5096451;28;20024;-63
2022/01/01 08:12:48;;;;;;;1.45;0.80;;;17.00;60.20;;;;;;5095686;28;20021;-62
2022/01/01 08:15:15;;;;;;;1.27;1.08;;;17.00;60.30;;;;;;5095900;28;20015;-62
2022/01/01 08:17:41;;;;;;;1.20;1.10;;;17.00;60.30;;;;;;5096029;28;20035;-62
2022/01/01 08:20:08;;;;;;;0.85;0.85;;;17.00;60.30;;;;;;5094334;28;20043;-63
2022/01/01 08:22:35;;;;;;;1.05;0.70;;;17.00;60.40;;;;;;5095706;28;20062;-63
2022/01/01 08:25:02;;;;;;;1.17;0.95;;;16.90;60.40;;;;;;5095480;28;20048;-62
2022/01/01 08:27:28;;;;;;;0.88;0.80;;;16.90;60.40;;;;;;5095791;28;20027;-63
2022/01/01 08:29:55;;;;;;;1.70;0.98;;;16.90;60.50;;;;;;5095198;28;20020;-63
2022/01/01 08:32:22;;;;;;;2.25;1.15;;;16.90;60.40;;;;;;5094434;28;20020;-63
2022/01/01 08:34:50;;;;;;;1.17;0.90;;;17.00;60.40;;;;;;5095419;28;20008;-62
2022/01/01 08:37:16;;;;;;;1.05;0.90;;;17.00;60.30;;;;;;5094993;28;20052;-62
2022/01/01 08:39:43;;;;;;;1.73;1.13;;;17.00;60.40;;;;;;5095394;28;20016;-62
2022/01/01 08:42:12;;;;;;;0.98;0.75;;;17.00;60.40;;;;;;5095259;28;20020;-62
2022/01/01 08:44:39;;;;;;;1.00;0.82;;;17.00;60.40;;;;;;5095192;28;20012;-62
2022/01/01 08:47:05;;;;;;;1.33;1.00;;;17.00;60.30;;;;;;5095299;28;20019;-62
2022/01/01 08:49:31;;;;;;;0.75;0.68;;;17.00;60.20;;;;;;5095569;28;20012;-62
2022/01/01 08:51:58;;;;;;;3.40;1.05;;;17.00;60.20;;;;;;5095406;28;20085;-63
2022/01/01 08:54:24;;;;;;;0.85;0.80;;;17.00;60.10;;;;;;5093872;28;20560;-63
2022/01/01 08:56:50;;;;;;;1.30;0.95;;;17.00;60.10;;;;;;5095028;28;20012;-62
2022/01/01 08:59:17;;;;;;;1.38;0.85;;;17.00;60.10;;;;;;5094968;28;20073;-64
2022/01/01 09:01:43;;;;;;;0.90;0.70;;;17.10;60.00;;;;;;5095360;28;20498;-64
2022/01/01 09:04:09;;;;;;;1.00;0.90;;;17.10;59.90;;;;;;5094196;28;20110;-62
2022/01/01 09:06:36;;;;;;;1.38;0.82;;;17.10;59.80;;;;;;5095005;28;20525;-64
2022/01/01 09:09:01;;;;;;;1.17;1.00;;;17.10;59.80;;;;;;5093659;28;20052;-62
2022/01/01 09:11:27;;;;;;;0.80;0.70;;;17.10;59.80;;;;;;5094822;28;20024;-65
2022/01/01 09:13:53;;;;;;;1.00;0.70;;;17.20;59.70;;;;;;5094652;28;20024;-63
2022/01/01 09:16:19;;;;;;;1.88;1.00;;;17.10;59.80;;;;;;5093366;28;20016;-64
2022/01/01 09:18:45;;;;;;;0.88;0.80;;;17.10;59.80;;;;;;5094836;28;20035;-62
2022/01/01 09:21:12;;;;;;;1.00;0.73;;;17.10;59.80;;;;;;5094542;28;20040;-65
2022/01/01 09:23:37;;;;;;;1.27;0.88;;;17.10;59.80;;;;;;5095106;28;20024;-65
2022/01/01 09:26:03;;;;;;;1.33;0.80;;;17.10;59.80;;;;;;5076808;28;20035;-63
2022/01/01 09:28:30;;;;;;;0.77;0.70;;;17.10;59.80;;;;;;5094095;28;20074;-62
2022/01/01 09:30:56;;;;;;;2.30;0.85;;;17.00;59.80;;;;;;5092744;28;20039;-64
2022/01/01 09:33:25;;;;;;;1.77;1.20;;;17.10;59.80;;;;;;5094394;28;20015;-63
2022/01/01 09:35:50;;;;;;;1.13;0.85;;;17.10;59.80;;;;;;5094209;28;20012;-63
2022/01/01 09:38:17;;;;;;;2.38;0.90;;;17.10;59.90;;;;;;5094128;28;20020;-63
2022/01/01 09:40:44;;;;;;;1.40;0.90;;;17.10;59.80;;;;;;5094102;28;20020;-62
2022/01/01 09:43:10;;;;;;;1.00;0.80;;;17.10;59.90;;;;;;5092471;28;20061;-63
2022/01/01 09:45:37;;;;;;;0.98;0.88;;;17.10;59.80;;;;;;5094130;28;20016;-63
2022/01/01 09:48:04;;;;;;;0.80;0.80;;;17.10;59.80;;;;;;5093723;28;20508;-64
2022/01/01 09:50:30;;;;;;;0.88;0.80;;;17.10;59.90;;;;;;5093894;28;20021;-62
2022/01/01 09:52:57;;;;;;;0.80;0.68;;;17.10;59.80;;;;;;5093654;28;20008;-63
2022/01/01 09:55:24;;;;;;;1.00;0.90;;;17.10;59.80;;;;;;5093669;28;20012;-63
2022/01/01 09:57:51;;;;;;;0.82;0.77;;;17.10;59.90;;;;;;5093897;28;20020;-63
2022/01/01 10:00:16;;;;;;;2.05;0.80;;;17.00;59.90;;;;;;5093912;28;20023;-64
2022/01/01 10:02:43;;;;;;;0.77;0.60;;;17.00;60.00;;;;;;5093472;28;20031;-63
2022/01/01 10:05:10;;;;;;;0.93;0.80;;;17.00;60.00;;;;;;5093872;28;20459;-63
2022/01/01 10:07:37;;;;;;;0.88;0.80;;;17.00;60.00;;;;;;5092324;28;20035;-63
2022/01/01 10:10:25;;;;;;;0.70;0.60;;;17.00;60.10;;;;;;5092144;28;20023;-62
2022/01/01 10:12:54;;;;;;;0.90;0.80;;;17.00;60.20;;;;;;5093750;28;20092;-63
2022/01/01 10:15:21;;;;;;;0.75;0.73;;;17.00;60.20;;;;;;5093716;28;20015;-63
2022/01/01 10:17:47;;;;;;;1.00;0.90;;;16.90;60.20;;;;;;5093349;28;20491;-62
2022/01/01 10:20:12;;;;;;;0.70;0.70;;;16.90;60.40;;;;;;5093889;28;20107;-64
2022/01/01 10:22:39;;;;;;;1.00;0.75;;;16.90;60.30;;;;;;5093831;28;20016;-64
2022/01/01 10:27:59;;;;;;;0.88;0.85;;;17.00;60.20;;;;;;5093978;28;20073;-63
2022/01/01 10:30:34;;;;;;;1.58;0.90;;;17.00;60.20;;;;;;5093742;28;20020;-63
2022/01/01 10:33:11;;;;;;;0.68;0.60;;;17.00;60.10;;;;;;5094072;28;20062;-65
2022/01/01 10:35:50;;;;;;;1.15;0.70;;;17.00;60.00;;;;;;5093923;28;20018;-64
2022/01/01 10:38:20;;;;;;;1.00;0.80;;;17.00;60.00;;;;;;5093454;28;20538;-63
2022/01/01 10:40:46;;;;;;;1.00;0.90;;;17.00;60.00;;;;;;5092168;28;20012;-63
2022/01/01 10:43:16;;;;;;;1.25;0.93;;;17.10;59.90;;;;;;5093289;28;20382;-63
2022/01/01 10:45:47;;;;;;;0.70;0.70;;;17.10;59.70;;;;;;5093027;28;20058;-64
2022/01/01 10:49:09;;;;;;;1.38;1.00;;;17.20;59.70;;;;;;5092949;28;20482;-63
2022/01/01 10:51:07;;;;;;;1.02;0.90;;;17.20;59.60;;;;;;5089863;28;20375;-63
2022/01/01 10:53:34;;;;;;;0.80;0.70;;;17.20;59.50;;;;;;5093528;28;20025;-64
2022/01/01 10:56:01;;;;;;;0.75;0.75;;;17.30;59.50;;;;;;5096736;28;20099;-64
2022/01/01 10:58:34;;;;;;;1.08;0.98;;;17.30;59.30;;;;;;5097470;28;20012;-62
2022/01/01 11:01:01;;;;;;;0.70;0.70;;;17.30;59.20;;;;;;5097208;28;20016;-63
2022/01/01 11:03:28;;;;;;;1.52;0.75;;;17.30;59.20;;;;;;5097199;28;20016;-63
2022/01/01 11:06:10;;;;;;;0.80;0.80;;;17.30;59.20;;;;;;5097111;28;20073;-64
2022/01/01 11:08:37;;;;;;;0.65;0.63;;;17.40;59.10;;;;;;5095549;28;20051;-64
2022/01/01 11:11:03;;;;;;;0.98;0.80;;;17.40;58.90;;;;;;5096717;28;20394;-64
2022/01/01 11:13:30;;;;;;;1.05;0.95;;;17.40;58.90;;;;;;5096978;28;20008;-63
2022/01/01 11:15:57;;;;;;;0.90;0.70;;;17.40;58.90;;;;;;5095899;28;20050;-63
2022/01/01 11:18:24;;;;;;;0.88;0.88;;;17.40;58.90;;;;;;5096987;28;20020;-64
2022/01/01 11:20:49;;;;;;;0.82;0.70;;;17.40;58.90;;;;;;5097099;28;20016;-64
2022/01/01 11:23:15;;;;;;;1.33;1.00;;;17.40;58.80;;;;;;5095844;28;20020;-63
2022/01/01 11:25:41;;;;;;;1.88;0.85;;;17.40;58.80;;;;;;5097186;28;20099;-65
2022/01/01 11:28:10;;;;;;;0.77;0.75;;;17.40;58.80;;;;;;5096724;28;20020;-64
2022/01/01 11:30:38;;;;;;;0.88;0.80;;;17.40;58.80;;;;;;5097149;28;20102;-64
2022/01/01 11:33:09;;;;;;;0.60;0.60;;;17.40;58.80;;;;;;5096985;28;20016;-64
2022/01/01 11:35:43;;;;;;;1.05;0.85;;;17.40;58.80;;;;;;5078855;28;20015;-64
2022/01/01 11:38:14;;;;;;;0.73;0.60;;;17.40;58.70;;;;;;5095550;28;20023;-65
2022/01/01 11:41:05;;;;;;;0.93;0.82;;;17.50;58.80;;;;;;5095460;28;20024;-65
2022/01/01 11:43:45;;;;;;;0.70;0.70;;;17.40;58.80;;;;;;5096633;28;20023;-62
2022/01/01 11:46:24;;;;;;;0.90;0.70;;;17.40;58.80;;;;;;5096417;28;20024;-64
2022/01/01 11:48:59;;;;;;;0.80;0.73;;;17.40;58.90;;;;;;5097013;28;20024;-64
2022/01/01 11:51:36;;;;;;;1.08;0.90;;;17.30;58.90;;;;;;5096786;28;20027;-64
2022/01/01 11:54:14;;;;;;;1.35;0.80;;;17.40;58.90;;;;;;5096753;28;20028;-64
2022/01/01 11:56:49;;;;;;;0.98;0.80;;;17.40;58.90;;;;;;5096710;28;20024;-64
2022/01/01 11:59:21;;;;;;;1.10;1.00;;;17.40;58.90;;;;;;5096260;28;20012;-63
2022/01/01 12:01:48;;;;;;;1.02;0.90;;;17.30;58.90;;;;;;5096273;28;20390;-63
2022/01/01 12:04:36;;;;;;;1.35;1.13;;;17.40;58.90;;;;;;5096086;28;20052;-63
2022/01/01 12:07:20;;;;;;;1.38;1.05;;;17.40;58.90;;;;;;5095041;28;20024;-63
2022/01/01 12:10:05;;;;;;;1.08;0.68;;;17.40;58.90;;;;;;5096260;28;20145;-63
2022/01/01 12:12:49;;;;;;;1.25;1.00;;;17.30;59.00;;;;;;5095726;28;20024;-65
2022/01/01 12:15:24;;;;;;;0.70;0.70;;;17.30;59.00;;;;;;5095446;28;20095;-65
2022/01/01 12:17:53;;;;;;;1.10;0.90;;;17.30;59.00;;;;;;5095472;28;20407;-65
2022/01/01 12:20:28;;;;;;;1.08;0.80;;;17.40;58.90;;;;;;5094254;28;20035;-64
2022/01/01 12:22:54;;;;;;;1.10;0.90;;;17.40;59.00;;;;;;5095609;28;20031;-65
2022/01/01 12:25:25;;;;;;;1.05;0.95;;;17.30;59.00;;;;;;5095283;28;20084;-65
2022/01/01 12:27:52;;;;;;;0.88;0.88;;;17.30;59.10;;;;;;5095547;28;20030;-66
2022/01/01 12:30:31;;;;;;;0.70;0.70;;;17.30;59.00;;;;;;5095453;28;20023;-64
2022/01/01 12:32:58;;;;;;;1.23;0.88;;;17.30;59.10;;;;;;5095148;28;20027;-64
2022/01/01 12:35:37;;;;;;;1.25;0.80;;;17.20;59.20;;;;;;5095504;28;20020;-64
2022/01/01 12:38:06;;;;;;;0.70;0.70;;;17.30;59.30;;;;;;5095305;28;20020;-64
2022/01/01 12:40:32;;;;;;;1.08;0.80;;;17.20;59.20;;;;;;5093729;28;20107;-65
2022/01/01 12:43:08;;;;;;;0.95;0.80;;;17.20;59.80;;;;;;5095278;28;20028;-65
2022/01/01 12:45:35;;;;;;;1.00;0.90;;;17.20;59.20;;;;;;5095094;28;20021;-64
2022/01/01 12:48:01;;;;;;;1.02;0.70;;;17.20;59.20;;;;;;5093725;28;20065;-65
2022/01/01 12:50:26;;;;;;;1.58;0.70;;;17.20;59.30;;;;;;5094701;28;20028;-64
2022/01/01 12:52:54;;;;;;;1.27;0.93;;;17.20;59.30;;;;;;5093549;28;20025;-64
2022/01/01 12:55:24;;;;;;;0.80;0.80;;;17.20;59.30;;;;;;5093432;28;20012;-65
2022/01/01 12:58:04;;;;;;;0.70;0.60;;;17.20;59.30;;;;;;5094918;28;20040;-64